sensor_id;sensor_type;location;lat;lon;timestamp;temperature;humidity
4602;DHT22;2313;48.552;9.370;2023-07-28T00:00:43;18.40;99.90
4602;DHT22;2313;48.552;9.370;2023-07-28T00:03:09;18.50;99.90
4602;DHT22;2313;48.552;9.370;2023-07-28T00:05:36;18.50;99.90
4602;DHT22;2313;48.552;9.370;2023-07-28T00:08:02;18.50;99.90
4602;DHT22;2313;48.552;9.370;2023-07-28T00:10:27;18.50;99.90
4602;DHT22;2313;48.552;9.370;2023-07-28T00:12:53;18.30;99.90
4602;DHT22;2313;48.552;9.370;2023-07-28T00:15:19;18.20;99.90
4602;DHT22;2313;48.552;9.370;2023-07-28T00:17:44;18.00;99.90
4602;DHT22;2313;48.552;9.370;2023-07-28T00:20:10;17.90;99.90
4602;DHT22;2313;48.552;9.370;2023-07-28T00:22:36;17.80;99.90
4602;DHT22;2313;48.552;9.370;2023-07-28T00:25:02;17.70;99.90
4602;DHT22;2313;48.552;9.370;2023-07-28T00:27:28;17.70;99.90
4602;DHT22;2313;48.552;9.370;2023-07-28T00:29:53;17.60;99.90
4602;DHT22;2313;48.552;9.370;2023-07-28T00:32:19;17.50;99.90
4602;DHT22;2313;48.552;9.370;2023-07-28T00:34:44;17.50;99.90
4602;DHT22;2313;48.552;9.370;2023-07-28T00:37:10;17.40;99.90
4602;DHT22;2313;48.552;9.370;2023-07-28T00:39:36;17.40;99.90
4602;DHT22;2313;48.552;9.370;2023-07-28T00:42:01;17.40;99.90
4602;DHT22;2313;48.552;9.370;2023-07-28T00:44:27;17.40;99.90
4602;DHT22;2313;48.552;9.370;2023-07-28T00:46:53;17.20;99.90
4602;DHT22;2313;48.552;9.370;2023-07-28T00:49:18;17.20;99.90
4602;DHT22;2313;48.552;9.370;2023-07-28T00:51:44;17.20;99.90
4602;DHT22;2313;48.552;9.370;2023-07-28T00:54:10;17.20;99.90
4602;DHT22;2313;48.552;9.370;2023-07-28T00:56:37;17.20;99.90
4602;DHT22;2313;48.552;9.370;2023-07-28T00:59:03;17.20;99.90
4602;DHT22;2313;48.552;9.370;2023-07-28T01:01:28;17.30;99.90
4602;DHT22;2313;48.552;9.370;2023-07-28T01:03:54;17.30;99.90
4602;DHT22;2313;48.552;9.370;2023-07-28T01:06:46;17.20;99.90
4602;DHT22;2313;48.552;9.370;2023-07-28T01:09:16;17.30;99.90
4602;DHT22;2313;48.552;9.370;2023-07-28T01:11:54;17.30;99.90
4602;DHT22;2313;48.552;9.370;2023-07-28T01:14:20;17.20;99.90
4602;DHT22;2313;48.552;9.370;2023-07-28T01:16:45;17.10;99.90
4602;DHT22;2313;48.552;9.370;2023-07-28T01:19:12;17.20;99.90
4602;DHT22;2313;48.552;9.370;2023-07-28T01:21:39;17.00;99.90
4602;DHT22;2313;48.552;9.370;2023-07-28T01:26:40;17.10;99.90
4602;DHT22;2313;48.552;9.370;2023-07-28T01:29:06;17.40;99.90
4602;DHT22;2313;48.552;9.370;2023-07-28T01:31:32;17.50;99.90
4602;DHT22;2313;48.552;9.370;2023-07-28T01:33:58;17.60;99.90
4602;DHT22;2313;48.552;9.370;2023-07-28T01:36:24;17.70;99.90
4602;DHT22;2313;48.552;9.370;2023-07-28T01:38:49;17.70;99.90
4602;DHT22;2313;48.552;9.370;2023-07-28T01:41:15;17.80;99.90
4602;DHT22;2313;48.552;9.370;2023-07-28T01:43:41;17.80;99.90
4602;DHT22;2313;48.552;9.370;2023-07-28T01:46:07;17.90;99.90
4602;DHT22;2313;48.552;9.370;2023-07-28T01:48:33;17.70;99.90
4602;DHT22;2313;48.552;9.370;2023-07-28T01:50:58;17.60;99.90
4602;DHT22;2313;48.552;9.370;2023-07-28T01:53:24;17.60;99.90
4602;DHT22;2313;48.552;9.370;2023-07-28T01:55:50;17.50;99.90
4602;DHT22;2313;48.552;9.370;2023-07-28T01:58:15;17.50;99.90
4602;DHT22;2313;48.552;9.370;2023-07-28T02:00:41;17.40;99.90
4602;DHT22;2313;48.552;9.370;2023-07-28T02:03:06;17.40;99.90
4602;DHT22;2313;48.552;9.370;2023-07-28T02:05:32;17.50;99.90
4602;DHT22;2313;48.552;9.370;2023-07-28T02:07:58;17.50;99.90
4602;DHT22;2313;48.552;9.370;2023-07-28T02:10:24;17.60;99.90
4602;DHT22;2313;48.552;9.370;2023-07-28T02:12:50;17.70;99.90
4602;DHT22;2313;48.552;9.370;2023-07-28T02:15:16;17.80;99.90
4602;DHT22;2313;48.552;9.370;2023-07-28T02:17:42;17.90;99.90
4602;DHT22;2313;48.552;9.370;2023-07-28T02:20:08;17.90;99.90
4602;DHT22;2313;48.552;9.370;2023-07-28T02:22:41;18.00;99.90
4602;DHT22;2313;48.552;9.370;2023-07-28T02:25:08;18.10;99.90
4602;DHT22;2313;48.552;9.370;2023-07-28T02:27:33;18.10;99.90
4602;DHT22;2313;48.552;9.370;2023-07-28T02:29:59;18.20;99.90
4602;DHT22;2313;48.552;9.370;2023-07-28T02:32:26;18.20;99.90
4602;DHT22;2313;48.552;9.370;2023-07-28T02:34:51;18.20;99.90
4602;DHT22;2313;48.552;9.370;2023-07-28T02:37:17;18.20;99.90
4602;DHT22;2313;48.552;9.370;2023-07-28T02:39:43;18.30;99.90
4602;DHT22;2313;48.552;9.370;2023-07-28T02:42:09;18.30;99.90
4602;DHT22;2313;48.552;9.370;2023-07-28T02:44:34;18.30;99.90
4602;DHT22;2313;48.552;9.370;2023-07-28T02:47:00;18.40;99.90
4602;DHT22;2313;48.552;9.370;2023-07-28T02:49:25;18.40;99.90
4602;DHT22;2313;48.552;9.370;2023-07-28T02:51:51;18.40;99.90
4602;DHT22;2313;48.552;9.370;2023-07-28T02:54:16;18.50;99.90
4602;DHT22;2313;48.552;9.370;2023-07-28T02:56:42;18.60;99.90
4602;DHT22;2313;48.552;9.370;2023-07-28T02:59:08;18.70;99.90
4602;DHT22;2313;48.552;9.370;2023-07-28T03:01:33;18.70;99.90
4602;DHT22;2313;48.552;9.370;2023-07-28T03:04:01;18.60;99.90
4602;DHT22;2313;48.552;9.370;2023-07-28T03:06:26;18.70;99.90
4602;DHT22;2313;48.552;9.370;2023-07-28T03:08:52;18.70;99.90
4602;DHT22;2313;48.552;9.370;2023-07-28T03:11:17;18.60;99.90
4602;DHT22;2313;48.552;9.370;2023-07-28T03:13:43;18.70;99.90
4602;DHT22;2313;48.552;9.370;2023-07-28T03:16:09;18.80;99.90
4602;DHT22;2313;48.552;9.370;2023-07-28T03:18:35;18.80;99.90
4602;DHT22;2313;48.552;9.370;2023-07-28T03:21:01;18.90;99.90
4602;DHT22;2313;48.552;9.370;2023-07-28T03:23:26;18.90;99.90
4602;DHT22;2313;48.552;9.370;2023-07-28T03:25:52;18.90;99.90
4602;DHT22;2313;48.552;9.370;2023-07-28T03:28:18;18.90;99.90
4602;DHT22;2313;48.552;9.370;2023-07-28T03:30:44;18.90;99.90
4602;DHT22;2313;48.552;9.370;2023-07-28T03:33:13;18.90;99.90
4602;DHT22;2313;48.552;9.370;2023-07-28T03:35:38;18.90;99.90
4602;DHT22;2313;48.552;9.370;2023-07-28T03:38:04;18.90;99.90
4602;DHT22;2313;48.552;9.370;2023-07-28T03:40:29;18.90;99.90
4602;DHT22;2313;48.552;9.370;2023-07-28T03:42:55;19.00;99.90
4602;DHT22;2313;48.552;9.370;2023-07-28T03:45:21;19.00;99.90
4602;DHT22;2313;48.552;9.370;2023-07-28T03:47:46;19.00;99.90
4602;DHT22;2313;48.552;9.370;2023-07-28T03:50:12;19.00;99.90
4602;DHT22;2313;48.552;9.370;2023-07-28T03:52:37;19.00;99.90
4602;DHT22;2313;48.552;9.370;2023-07-28T03:55:03;19.00;99.90
4602;DHT22;2313;48.552;9.370;2023-07-28T03:57:29;19.00;99.90
4602;DHT22;2313;48.552;9.370;2023-07-28T03:59:55;19.00;99.90
4602;DHT22;2313;48.552;9.370;2023-07-28T04:02:20;19.00;99.90
4602;DHT22;2313;48.552;9.370;2023-07-28T04:04:46;19.00;99.90
4602;DHT22;2313;48.552;9.370;2023-07-28T04:07:12;19.00;99.90
4602;DHT22;2313;48.552;9.370;2023-07-28T04:09:37;19.00;99.90
4602;DHT22;2313;48.552;9.370;2023-07-28T04:12:03;19.00;99.90
4602;DHT22;2313;48.552;9.370;2023-07-28T04:14:29;19.10;99.90
4602;DHT22;2313;48.552;9.370;2023-07-28T04:16:54;19.10;99.90
4602;DHT22;2313;48.552;9.370;2023-07-28T04:19:20;19.10;99.90
4602;DHT22;2313;48.552;9.370;2023-07-28T04:21:45;19.10;99.90
4602;DHT22;2313;48.552;9.370;2023-07-28T04:24:11;19.00;99.90
4602;DHT22;2313;48.552;9.370;2023-07-28T04:26:37;19.10;99.90
4602;DHT22;2313;48.552;9.370;2023-07-28T04:29:03;19.10;99.90
4602;DHT22;2313;48.552;9.370;2023-07-28T04:31:29;19.10;99.90
4602;DHT22;2313;48.552;9.370;2023-07-28T04:33:54;19.20;99.90
4602;DHT22;2313;48.552;9.370;2023-07-28T04:36:20;19.20;99.90
4602;DHT22;2313;48.552;9.370;2023-07-28T04:38:45;19.20;99.90
4602;DHT22;2313;48.552;9.370;2023-07-28T04:41:11;19.20;99.90
4602;DHT22;2313;48.552;9.370;2023-07-28T04:43:37;19.20;99.90
4602;DHT22;2313;48.552;9.370;2023-07-28T04:46:02;19.10;99.90
4602;DHT22;2313;48.552;9.370;2023-07-28T04:48:28;19.20;99.90
4602;DHT22;2313;48.552;9.370;2023-07-28T04:50:53;19.20;99.90
4602;DHT22;2313;48.552;9.370;2023-07-28T04:53:19;19.30;99.90
4602;DHT22;2313;48.552;9.370;2023-07-28T04:55:45;19.40;99.90
4602;DHT22;2313;48.552;9.370;2023-07-28T04:58:10;19.40;99.90
4602;DHT22;2313;48.552;9.370;2023-07-28T05:00:36;19.40;99.90
4602;DHT22;2313;48.552;9.370;2023-07-28T05:03:02;19.50;99.90
4602;DHT22;2313;48.552;9.370;2023-07-28T05:05:29;19.50;99.90
4602;DHT22;2313;48.552;9.370;2023-07-28T05:07:54;19.50;99.90
4602;DHT22;2313;48.552;9.370;2023-07-28T05:10:20;19.50;99.90
4602;DHT22;2313;48.552;9.370;2023-07-28T05:12:46;19.60;99.90
4602;DHT22;2313;48.552;9.370;2023-07-28T05:15:14;19.60;99.90
4602;DHT22;2313;48.552;9.370;2023-07-28T05:17:40;19.60;99.90
4602;DHT22;2313;48.552;9.370;2023-07-28T05:20:06;19.60;99.90
4602;DHT22;2313;48.552;9.370;2023-07-28T05:22:32;19.60;99.90
4602;DHT22;2313;48.552;9.370;2023-07-28T05:24:57;19.70;99.90
4602;DHT22;2313;48.552;9.370;2023-07-28T05:27:23;19.70;99.90
4602;DHT22;2313;48.552;9.370;2023-07-28T05:29:48;19.70;99.90
4602;DHT22;2313;48.552;9.370;2023-07-28T05:32:14;19.70;99.90
4602;DHT22;2313;48.552;9.370;2023-07-28T05:34:43;19.70;99.90
4602;DHT22;2313;48.552;9.370;2023-07-28T05:37:09;19.60;99.90
4602;DHT22;2313;48.552;9.370;2023-07-28T05:39:35;19.60;99.90
4602;DHT22;2313;48.552;9.370;2023-07-28T05:42:01;19.60;99.90
4602;DHT22;2313;48.552;9.370;2023-07-28T05:44:26;19.60;99.90
4602;DHT22;2313;48.552;9.370;2023-07-28T05:46:53;19.60;99.90
4602;DHT22;2313;48.552;9.370;2023-07-28T05:49:18;19.70;99.90
4602;DHT22;2313;48.552;9.370;2023-07-28T05:51:44;19.50;99.90
4602;DHT22;2313;48.552;9.370;2023-07-28T05:54:09;19.30;99.90
4602;DHT22;2313;48.552;9.370;2023-07-28T05:56:35;19.10;99.90
4602;DHT22;2313;48.552;9.370;2023-07-28T05:59:01;19.00;99.90
4602;DHT22;2313;48.552;9.370;2023-07-28T06:01:26;18.90;99.90
4602;DHT22;2313;48.552;9.370;2023-07-28T06:03:52;18.80;99.90
4602;DHT22;2313;48.552;9.370;2023-07-28T06:06:21;18.70;99.90
4602;DHT22;2313;48.552;9.370;2023-07-28T06:08:47;18.60;99.90
4602;DHT22;2313;48.552;9.370;2023-07-28T06:11:13;18.60;99.90
4602;DHT22;2313;48.552;9.370;2023-07-28T06:13:38;18.60;99.90
4602;DHT22;2313;48.552;9.370;2023-07-28T06:16:04;18.70;99.90
4602;DHT22;2313;48.552;9.370;2023-07-28T06:18:29;18.80;99.90
4602;DHT22;2313;48.552;9.370;2023-07-28T06:20:55;18.90;99.90
4602;DHT22;2313;48.552;9.370;2023-07-28T06:23:21;19.00;99.90
4602;DHT22;2313;48.552;9.370;2023-07-28T06:25:46;19.10;99.90
4602;DHT22;2313;48.552;9.370;2023-07-28T06:28:12;19.20;99.90
4602;DHT22;2313;48.552;9.370;2023-07-28T06:30:38;19.10;99.90
4602;DHT22;2313;48.552;9.370;2023-07-28T06:33:08;19.30;99.90
4602;DHT22;2313;48.552;9.370;2023-07-28T06:35:33;19.30;99.90
4602;DHT22;2313;48.552;9.370;2023-07-28T06:38:00;19.40;99.90
4602;DHT22;2313;48.552;9.370;2023-07-28T06:40:26;19.40;99.90
4602;DHT22;2313;48.552;9.370;2023-07-28T06:42:52;19.50;99.90
4602;DHT22;2313;48.552;9.370;2023-07-28T06:45:17;19.40;99.90
4602;DHT22;2313;48.552;9.370;2023-07-28T06:47:43;19.40;99.90
4602;DHT22;2313;48.552;9.370;2023-07-28T06:50:10;19.40;99.90
4602;DHT22;2313;48.552;9.370;2023-07-28T06:52:36;19.40;99.90
4602;DHT22;2313;48.552;9.370;2023-07-28T06:55:03;19.40;99.90
4602;DHT22;2313;48.552;9.370;2023-07-28T06:57:29;19.60;99.90
4602;DHT22;2313;48.552;9.370;2023-07-28T06:59:56;19.60;99.90
4602;DHT22;2313;48.552;9.370;2023-07-28T07:02:21;19.60;99.90
4602;DHT22;2313;48.552;9.370;2023-07-28T07:04:47;19.40;99.90
4602;DHT22;2313;48.552;9.370;2023-07-28T07:07:13;19.40;99.90
4602;DHT22;2313;48.552;9.370;2023-07-28T07:09:38;19.30;99.90
4602;DHT22;2313;48.552;9.370;2023-07-28T07:12:04;19.10;99.90
4602;DHT22;2313;48.552;9.370;2023-07-28T07:14:30;19.20;99.90
4602;DHT22;2313;48.552;9.370;2023-07-28T07:16:56;19.20;99.90
4602;DHT22;2313;48.552;9.370;2023-07-28T07:19:22;19.10;99.90
4602;DHT22;2313;48.552;9.370;2023-07-28T07:21:47;19.10;99.90
4602;DHT22;2313;48.552;9.370;2023-07-28T07:24:14;19.20;99.90
4602;DHT22;2313;48.552;9.370;2023-07-28T07:26:40;19.20;99.90
4602;DHT22;2313;48.552;9.370;2023-07-28T07:29:07;19.30;99.90
4602;DHT22;2313;48.552;9.370;2023-07-28T07:31:33;19.40;99.90
4602;DHT22;2313;48.552;9.370;2023-07-28T07:33:59;19.50;99.90
4602;DHT22;2313;48.552;9.370;2023-07-28T07:36:25;19.70;99.90
4602;DHT22;2313;48.552;9.370;2023-07-28T07:38:51;19.80;99.90
4602;DHT22;2313;48.552;9.370;2023-07-28T07:41:17;19.80;99.90
4602;DHT22;2313;48.552;9.370;2023-07-28T07:43:46;19.80;99.90
4602;DHT22;2313;48.552;9.370;2023-07-28T07:46:12;19.90;99.90
4602;DHT22;2313;48.552;9.370;2023-07-28T07:48:38;20.00;99.90
4602;DHT22;2313;48.552;9.370;2023-07-28T07:51:03;20.10;99.90
4602;DHT22;2313;48.552;9.370;2023-07-28T07:53:29;20.30;99.90
4602;DHT22;2313;48.552;9.370;2023-07-28T07:55:55;20.30;99.90
4602;DHT22;2313;48.552;9.370;2023-07-28T07:58:20;20.40;99.90
4602;DHT22;2313;48.552;9.370;2023-07-28T08:00:46;20.30;99.90
4602;DHT22;2313;48.552;9.370;2023-07-28T08:03:11;20.30;99.90
4602;DHT22;2313;48.552;9.370;2023-07-28T08:05:37;20.30;99.90
4602;DHT22;2313;48.552;9.370;2023-07-28T08:08:03;20.30;99.90
4602;DHT22;2313;48.552;9.370;2023-07-28T08:10:30;20.30;99.90
4602;DHT22;2313;48.552;9.370;2023-07-28T08:12:56;20.20;99.90
4602;DHT22;2313;48.552;9.370;2023-07-28T08:15:22;20.10;99.90
4602;DHT22;2313;48.552;9.370;2023-07-28T08:17:48;20.10;99.90
4602;DHT22;2313;48.552;9.370;2023-07-28T08:20:13;20.00;99.90
4602;DHT22;2313;48.552;9.370;2023-07-28T08:22:39;20.10;99.90
4602;DHT22;2313;48.552;9.370;2023-07-28T08:25:05;20.10;99.90
4602;DHT22;2313;48.552;9.370;2023-07-28T08:27:31;20.10;99.90
4602;DHT22;2313;48.552;9.370;2023-07-28T08:29:56;20.20;99.90
4602;DHT22;2313;48.552;9.370;2023-07-28T08:32:22;20.40;99.90
4602;DHT22;2313;48.552;9.370;2023-07-28T08:34:48;20.70;99.90
4602;DHT22;2313;48.552;9.370;2023-07-28T08:37:13;21.10;99.90
4602;DHT22;2313;48.552;9.370;2023-07-28T08:39:39;21.30;99.90
4602;DHT22;2313;48.552;9.370;2023-07-28T08:42:05;21.50;99.90
4602;DHT22;2313;48.552;9.370;2023-07-28T08:44:34;21.70;99.90
4602;DHT22;2313;48.552;9.370;2023-07-28T08:47:01;22.00;99.90
4602;DHT22;2313;48.552;9.370;2023-07-28T08:49:27;22.00;99.90
4602;DHT22;2313;48.552;9.370;2023-07-28T08:52:00;22.10;99.90
4602;DHT22;2313;48.552;9.370;2023-07-28T08:54:26;22.20;99.90
4602;DHT22;2313;48.552;9.370;2023-07-28T08:56:51;22.30;99.90
4602;DHT22;2313;48.552;9.370;2023-07-28T08:59:25;22.30;99.90
4602;DHT22;2313;48.552;9.370;2023-07-28T09:01:53;22.40;99.90
4602;DHT22;2313;48.552;9.370;2023-07-28T09:04:20;22.30;99.90
4602;DHT22;2313;48.552;9.370;2023-07-28T09:06:47;22.40;99.90
4602;DHT22;2313;48.552;9.370;2023-07-28T09:09:18;22.50;99.90
4602;DHT22;2313;48.552;9.370;2023-07-28T09:11:51;22.60;99.90
4602;DHT22;2313;48.552;9.370;2023-07-28T09:14:18;22.90;99.90
4602;DHT22;2313;48.552;9.370;2023-07-28T09:16:45;23.30;99.90
4602;DHT22;2313;48.552;9.370;2023-07-28T09:19:11;23.50;99.90
4602;DHT22;2313;48.552;9.370;2023-07-28T09:21:38;23.60;99.90
4602;DHT22;2313;48.552;9.370;2023-07-28T09:24:09;23.60;99.90
4602;DHT22;2313;48.552;9.370;2023-07-28T09:26:42;24.00;99.90
4602;DHT22;2313;48.552;9.370;2023-07-28T09:31:42;24.60;99.90
4602;DHT22;2313;48.552;9.370;2023-07-28T09:34:08;24.80;99.90
4602;DHT22;2313;48.552;9.370;2023-07-28T09:36:35;24.70;99.90
4602;DHT22;2313;48.552;9.370;2023-07-28T09:39:02;24.60;99.90
4602;DHT22;2313;48.552;9.370;2023-07-28T09:41:33;24.70;99.90
4602;DHT22;2313;48.552;9.370;2023-07-28T09:43:59;24.70;99.90
4602;DHT22;2313;48.552;9.370;2023-07-28T09:46:28;24.70;99.90
4602;DHT22;2313;48.552;9.370;2023-07-28T09:48:57;24.50;99.90
4602;DHT22;2313;48.552;9.370;2023-07-28T09:51:29;24.30;99.90
4602;DHT22;2313;48.552;9.370;2023-07-28T09:54:04;24.10;99.90
4602;DHT22;2313;48.552;9.370;2023-07-28T09:56:31;24.50;99.90
4602;DHT22;2313;48.552;9.370;2023-07-28T09:58:59;24.60;99.90
4602;DHT22;2313;48.552;9.370;2023-07-28T10:01:27;24.50;99.90
4602;DHT22;2313;48.552;9.370;2023-07-28T10:03:53;24.60;99.90
4602;DHT22;2313;48.552;9.370;2023-07-28T10:06:20;24.40;99.90
4602;DHT22;2313;48.552;9.370;2023-07-28T10:08:45;24.40;99.90
4602;DHT22;2313;48.552;9.370;2023-07-28T10:11:17;24.90;99.90
4602;DHT22;2313;48.552;9.370;2023-07-28T10:13:44;25.40;99.90
4602;DHT22;2313;48.552;9.370;2023-07-28T10:16:11;25.30;99.90
4602;DHT22;2313;48.552;9.370;2023-07-28T10:18:40;25.30;99.90
4602;DHT22;2313;48.552;9.370;2023-07-28T10:21:09;25.50;99.90
4602;DHT22;2313;48.552;9.370;2023-07-28T10:23:38;26.00;99.90
4602;DHT22;2313;48.552;9.370;2023-07-28T10:26:04;26.00;99.90
4602;DHT22;2313;48.552;9.370;2023-07-28T10:28:37;26.00;99.90
4602;DHT22;2313;48.552;9.370;2023-07-28T10:31:10;25.90;99.90
4602;DHT22;2313;48.552;9.370;2023-07-28T10:33:41;25.70;99.90
4602;DHT22;2313;48.552;9.370;2023-07-28T10:39:15;25.10;99.90
4602;DHT22;2313;48.552;9.370;2023-07-28T10:42:04;24.90;99.90
4602;DHT22;2313;48.552;9.370;2023-07-28T10:44:31;24.90;99.90
4602;DHT22;2313;48.552;9.370;2023-07-28T10:46:57;24.90;99.90
4602;DHT22;2313;48.552;9.370;2023-07-28T10:49:24;24.80;99.90
4602;DHT22;2313;48.552;9.370;2023-07-28T10:51:50;24.80;99.90
4602;DHT22;2313;48.552;9.370;2023-07-28T10:54:16;24.90;99.90
4602;DHT22;2313;48.552;9.370;2023-07-28T10:56:45;24.80;99.90
4602;DHT22;2313;48.552;9.370;2023-07-28T10:59:11;24.70;99.90
4602;DHT22;2313;48.552;9.370;2023-07-28T11:01:39;24.80;99.90
4602;DHT22;2313;48.552;9.370;2023-07-28T11:04:16;24.80;99.90
4602;DHT22;2313;48.552;9.370;2023-07-28T11:06:48;24.70;99.90
4602;DHT22;2313;48.552;9.370;2023-07-28T11:09:18;24.70;99.90
4602;DHT22;2313;48.552;9.370;2023-07-28T11:11:45;24.80;99.90
4602;DHT22;2313;48.552;9.370;2023-07-28T11:14:11;24.80;99.90
4602;DHT22;2313;48.552;9.370;2023-07-28T11:16:39;24.80;99.90
4602;DHT22;2313;48.552;9.370;2023-07-28T11:19:10;24.70;99.90
4602;DHT22;2313;48.552;9.370;2023-07-28T11:21:40;24.70;99.90
4602;DHT22;2313;48.552;9.370;2023-07-28T11:24:07;24.70;99.90
4602;DHT22;2313;48.552;9.370;2023-07-28T11:26:35;24.80;99.90
4602;DHT22;2313;48.552;9.370;2023-07-28T11:29:01;24.70;99.90
4602;DHT22;2313;48.552;9.370;2023-07-28T11:31:27;24.90;99.90
4602;DHT22;2313;48.552;9.370;2023-07-28T11:33:53;25.00;99.90
4602;DHT22;2313;48.552;9.370;2023-07-28T11:36:26;25.00;99.90
4602;DHT22;2313;48.552;9.370;2023-07-28T11:38:53;24.90;99.90
4602;DHT22;2313;48.552;9.370;2023-07-28T11:41:20;24.80;99.90
4602;DHT22;2313;48.552;9.370;2023-07-28T11:43:47;24.60;99.90
4602;DHT22;2313;48.552;9.370;2023-07-28T11:46:39;24.30;99.90
4602;DHT22;2313;48.552;9.370;2023-07-28T11:49:18;24.10;99.90
4602;DHT22;2313;48.552;9.370;2023-07-28T11:51:48;23.80;99.90
4602;DHT22;2313;48.552;9.370;2023-07-28T11:54:15;23.40;99.90
4602;DHT22;2313;48.552;9.370;2023-07-28T11:56:42;23.10;99.90
4602;DHT22;2313;48.552;9.370;2023-07-28T11:59:09;22.70;99.90
4602;DHT22;2313;48.552;9.370;2023-07-28T12:01:35;22.30;99.90
4602;DHT22;2313;48.552;9.370;2023-07-28T12:04:19;22.10;99.90
4602;DHT22;2313;48.552;9.370;2023-07-28T12:07:14;21.90;99.90
4602;DHT22;2313;48.552;9.370;2023-07-28T12:12:40;21.40;99.90
4602;DHT22;2313;48.552;9.370;2023-07-28T12:15:23;21.30;99.90
4602;DHT22;2313;48.552;9.370;2023-07-28T12:20:42;21.10;99.90
4602;DHT22;2313;48.552;9.370;2023-07-28T12:23:16;21.10;99.90
4602;DHT22;2313;48.552;9.370;2023-07-28T12:25:42;21.00;99.90
4602;DHT22;2313;48.552;9.370;2023-07-28T12:28:08;21.10;99.90
4602;DHT22;2313;48.552;9.370;2023-07-28T12:30:34;21.20;99.90
4602;DHT22;2313;48.552;9.370;2023-07-28T12:32:59;21.00;99.90
4602;DHT22;2313;48.552;9.370;2023-07-28T12:35:26;21.20;99.90
4602;DHT22;2313;48.552;9.370;2023-07-28T12:37:57;21.40;99.90
4602;DHT22;2313;48.552;9.370;2023-07-28T12:40:22;21.50;99.90
4602;DHT22;2313;48.552;9.370;2023-07-28T12:42:49;21.50;99.90
4602;DHT22;2313;48.552;9.370;2023-07-28T12:45:15;21.50;99.90
4602;DHT22;2313;48.552;9.370;2023-07-28T12:47:43;21.50;99.90
4602;DHT22;2313;48.552;9.370;2023-07-28T12:50:10;21.50;99.90
4602;DHT22;2313;48.552;9.370;2023-07-28T12:52:36;21.50;99.90
4602;DHT22;2313;48.552;9.370;2023-07-28T12:55:02;21.50;99.90
4602;DHT22;2313;48.552;9.370;2023-07-28T12:57:28;21.30;99.90
4602;DHT22;2313;48.552;9.370;2023-07-28T12:59:54;21.20;99.90
4602;DHT22;2313;48.552;9.370;2023-07-28T13:02:19;21.00;99.90
4602;DHT22;2313;48.552;9.370;2023-07-28T13:04:45;21.00;99.90
4602;DHT22;2313;48.552;9.370;2023-07-28T13:07:11;21.00;99.90
4602;DHT22;2313;48.552;9.370;2023-07-28T13:09:36;21.10;99.90
4602;DHT22;2313;48.552;9.370;2023-07-28T13:12:02;21.20;99.90
4602;DHT22;2313;48.552;9.370;2023-07-28T13:14:28;21.30;99.90
4602;DHT22;2313;48.552;9.370;2023-07-28T13:16:54;21.40;99.90
4602;DHT22;2313;48.552;9.370;2023-07-28T13:19:19;21.40;99.90
4602;DHT22;2313;48.552;9.370;2023-07-28T13:21:45;21.50;99.90
4602;DHT22;2313;48.552;9.370;2023-07-28T13:24:10;21.50;99.90
4602;DHT22;2313;48.552;9.370;2023-07-28T13:26:36;21.60;99.90
4602;DHT22;2313;48.552;9.370;2023-07-28T13:29:02;21.60;99.90
4602;DHT22;2313;48.552;9.370;2023-07-28T13:31:28;21.50;99.90
4602;DHT22;2313;48.552;9.370;2023-07-28T13:33:54;21.60;99.90
4602;DHT22;2313;48.552;9.370;2023-07-28T13:36:19;21.50;99.90
4602;DHT22;2313;48.552;9.370;2023-07-28T13:38:45;21.40;99.90
4602;DHT22;2313;48.552;9.370;2023-07-28T13:41:11;21.50;99.90
4602;DHT22;2313;48.552;9.370;2023-07-28T13:43:37;21.50;99.90
4602;DHT22;2313;48.552;9.370;2023-07-28T13:46:06;21.50;99.90
4602;DHT22;2313;48.552;9.370;2023-07-28T13:48:32;21.60;99.90
4602;DHT22;2313;48.552;9.370;2023-07-28T13:50:58;21.50;99.90
4602;DHT22;2313;48.552;9.370;2023-07-28T13:53:24;21.50;99.90
4602;DHT22;2313;48.552;9.370;2023-07-28T13:55:50;21.40;99.90
4602;DHT22;2313;48.552;9.370;2023-07-28T13:58:16;21.40;99.90
4602;DHT22;2313;48.552;9.370;2023-07-28T14:00:42;21.30;99.90
4602;DHT22;2313;48.552;9.370;2023-07-28T14:03:08;21.20;99.90
4602;DHT22;2313;48.552;9.370;2023-07-28T14:05:34;21.20;99.90
4602;DHT22;2313;48.552;9.370;2023-07-28T14:07:59;21.20;99.90
4602;DHT22;2313;48.552;9.370;2023-07-28T14:10:25;21.10;99.90
4602;DHT22;2313;48.552;9.370;2023-07-28T14:12:51;21.00;99.90
4602;DHT22;2313;48.552;9.370;2023-07-28T14:15:17;21.00;99.90
4602;DHT22;2313;48.552;9.370;2023-07-28T14:17:43;21.00;99.90
4602;DHT22;2313;48.552;9.370;2023-07-28T14:20:08;21.00;99.90
4602;DHT22;2313;48.552;9.370;2023-07-28T14:22:34;20.90;99.90
4602;DHT22;2313;48.552;9.370;2023-07-28T14:25:00;20.90;99.90
4602;DHT22;2313;48.552;9.370;2023-07-28T14:27:26;20.70;99.90
4602;DHT22;2313;48.552;9.370;2023-07-28T14:29:51;20.70;99.90
4602;DHT22;2313;48.552;9.370;2023-07-28T14:32:17;20.70;99.90
4602;DHT22;2313;48.552;9.370;2023-07-28T14:34:43;20.70;99.90
4602;DHT22;2313;48.552;9.370;2023-07-28T14:37:08;20.70;99.90
4602;DHT22;2313;48.552;9.370;2023-07-28T14:39:34;20.80;99.90
4602;DHT22;2313;48.552;9.370;2023-07-28T14:42:00;20.90;99.90
4602;DHT22;2313;48.552;9.370;2023-07-28T14:44:26;20.90;99.90
4602;DHT22;2313;48.552;9.370;2023-07-28T14:46:54;20.90;99.90
4602;DHT22;2313;48.552;9.370;2023-07-28T14:49:20;20.90;99.90
4602;DHT22;2313;48.552;9.370;2023-07-28T14:51:46;20.90;99.90
4602;DHT22;2313;48.552;9.370;2023-07-28T14:54:11;20.90;99.90
4602;DHT22;2313;48.552;9.370;2023-07-28T14:56:37;21.10;99.90
4602;DHT22;2313;48.552;9.370;2023-07-28T14:59:03;21.00;99.90
4602;DHT22;2313;48.552;9.370;2023-07-28T15:01:29;21.20;99.90
4602;DHT22;2313;48.552;9.370;2023-07-28T15:03:55;21.50;99.90
4602;DHT22;2313;48.552;9.370;2023-07-28T15:06:20;21.90;99.90
4602;DHT22;2313;48.552;9.370;2023-07-28T15:08:46;22.10;99.90
4602;DHT22;2313;48.552;9.370;2023-07-28T15:11:13;22.40;99.90
4602;DHT22;2313;48.552;9.370;2023-07-28T15:13:39;22.50;99.90
4602;DHT22;2313;48.552;9.370;2023-07-28T15:16:05;22.50;99.90
4602;DHT22;2313;48.552;9.370;2023-07-28T15:18:31;22.30;99.90
4602;DHT22;2313;48.552;9.370;2023-07-28T15:20:57;22.30;99.90
4602;DHT22;2313;48.552;9.370;2023-07-28T15:23:25;22.30;99.90
4602;DHT22;2313;48.552;9.370;2023-07-28T15:25:51;22.30;99.90
4602;DHT22;2313;48.552;9.370;2023-07-28T15:28:18;22.20;99.90
4602;DHT22;2313;48.552;9.370;2023-07-28T15:30:44;22.20;99.90
4602;DHT22;2313;48.552;9.370;2023-07-28T15:33:13;22.30;99.90
4602;DHT22;2313;48.552;9.370;2023-07-28T15:35:40;22.40;99.90
4602;DHT22;2313;48.552;9.370;2023-07-28T15:38:06;22.40;99.90
4602;DHT22;2313;48.552;9.370;2023-07-28T15:40:32;22.40;99.90
4602;DHT22;2313;48.552;9.370;2023-07-28T15:42:58;22.40;99.90
4602;DHT22;2313;48.552;9.370;2023-07-28T15:45:23;22.30;99.90
4602;DHT22;2313;48.552;9.370;2023-07-28T15:47:49;22.30;99.90
4602;DHT22;2313;48.552;9.370;2023-07-28T15:50:15;22.10;99.90
4602;DHT22;2313;48.552;9.370;2023-07-28T15:52:40;22.10;99.90
4602;DHT22;2313;48.552;9.370;2023-07-28T15:55:06;22.10;99.90
4602;DHT22;2313;48.552;9.370;2023-07-28T15:57:32;22.10;99.90
4602;DHT22;2313;48.552;9.370;2023-07-28T15:59:57;22.00;99.90
4602;DHT22;2313;48.552;9.370;2023-07-28T16:02:23;22.00;99.90
4602;DHT22;2313;48.552;9.370;2023-07-28T16:04:48;22.10;99.90
4602;DHT22;2313;48.552;9.370;2023-07-28T16:07:15;22.00;99.90
4602;DHT22;2313;48.552;9.370;2023-07-28T16:09:41;22.00;99.90
4602;DHT22;2313;48.552;9.370;2023-07-28T16:12:09;22.00;99.90